Archival Weather

Chicago O'Hare International

Chicago, Illinois (KORD)

Report from: Saturday, November 5, 2022 1:55 AM CDT
Current time: Saturday, March 2, 2024 3:39 AM CST

Current weather – Weather history – Daily summaries
Weather forecast

Present weatherHeavy rain
Temperature17.8°C (64.0°F)
Dew point14.4°C (57.9°F)
Winds 19 kts (9.8 m/s, 21.9 mph) South-Southwest (200°)
Wind gusts 34 kts (17.5 m/s, 39.1 mph)
Peak wind 34 kts (17.5 m/s, 39.1 mph) South-Southwest (200°) at 06:52
Visibility3 mi. (4.8 km)
Clouds Ceiling: Broken clouds 3,300 ft. (1,006 m)
Overcast 4,300 ft. (1,311 m)
Altimeter29.68 in.Hg (1005 mB)
Precipitiation0.03 in. (1 mm)
Relative humidity81 %
Density altitude833 ft. (254 m)
Remarks Automated weather observing station with precipitation discriminator
Flight conditions Marginal Visual Meteorological Conditions
Raw dataKORD 050655Z 20019G34KT 3SM +RA BKN033 OVC043 18/14 A2968 RMK AO2 PK WND 20034/0652 P0003 T01780144
An error has occurred. This application may no longer respond until reloaded. Reload 🗙